createdAt,value
2018-09-16T00:01:40.864Z,14.41
2018-09-16T00:04:08.956Z,14.41
2018-09-16T00:06:37.024Z,14.39
2018-09-16T00:09:07.876Z,14.37
2018-09-16T00:11:36.045Z,14.36
2018-09-16T00:14:04.096Z,14.35
2018-09-16T00:16:32.157Z,14.33
2018-09-16T00:19:00.242Z,14.31
2018-09-16T00:21:28.313Z,14.29
2018-09-16T00:23:56.391Z,14.27
2018-09-16T00:26:24.439Z,14.26
2018-09-16T00:28:52.527Z,14.25
2018-09-16T00:31:20.593Z,14.23
2018-09-16T00:33:48.900Z,14.21
2018-09-16T00:38:44.130Z,14.17
2018-09-16T00:41:12.197Z,14.16
2018-09-16T00:43:40.291Z,14.17
2018-09-16T00:46:08.490Z,14.15
2018-09-16T00:48:36.569Z,14.14
2018-09-16T00:51:04.625Z,14.11
2018-09-16T00:53:32.785Z,14.09
2018-09-16T00:56:00.851Z,14.07
2018-09-16T00:58:28.955Z,14.05
2018-09-16T01:00:58.243Z,14.04
2018-09-16T01:03:26.433Z,14.01
2018-09-16T01:05:59.952Z,14.02
2018-09-16T01:08:28.012Z,14.02
2018-09-16T01:10:57.471Z,14.02
2018-09-16T01:13:25.539Z,13.99
2018-09-16T01:15:53.596Z,13.99
2018-09-16T01:18:21.714Z,13.99
2018-09-16T01:20:49.813Z,13.97
2018-09-16T01:23:17.903Z,13.96
2018-09-16T01:25:45.980Z,13.94
2018-09-16T01:28:14.059Z,13.92
2018-09-16T01:30:42.137Z,13.92
2018-09-16T01:33:10.261Z,13.90
2018-09-16T01:35:38.375Z,13.86
2018-09-16T01:38:11.804Z,13.83
2018-09-16T01:40:39.925Z,13.78
2018-09-16T01:43:07.972Z,13.73
2018-09-16T01:45:36.067Z,13.67
2018-09-16T01:48:04.160Z,13.62
2018-09-16T01:50:32.231Z,13.60
2018-09-16T01:53:00.322Z,13.56
2018-09-16T01:55:28.380Z,13.52
2018-09-16T01:57:56.455Z,13.49
2018-09-16T02:00:25.638Z,13.45
2018-09-16T02:02:54.971Z,13.41
2018-09-16T02:05:28.519Z,13.38
2018-09-16T02:07:57.353Z,13.33
2018-09-16T02:10:25.440Z,13.29
2018-09-16T02:12:53.544Z,13.25
2018-09-16T02:15:21.619Z,13.19
2018-09-16T02:17:50.537Z,13.13
2018-09-16T02:20:18.662Z,13.08
2018-09-16T02:22:46.728Z,13.05
2018-09-16T02:25:14.835Z,13.00
2018-09-16T02:27:42.919Z,12.97
2018-09-16T02:30:11.009Z,12.94
2018-09-16T02:32:39.097Z,12.91
2018-09-16T02:35:07.196Z,12.87
2018-09-16T02:37:35.268Z,12.84
2018-09-16T02:40:03.344Z,12.81
2018-09-16T02:42:31.408Z,12.77
2018-09-16T02:44:59.513Z,12.75
2018-09-16T02:47:27.595Z,12.74
2018-09-16T02:49:55.698Z,12.69
2018-09-16T02:52:23.807Z,12.67
2018-09-16T02:54:51.925Z,12.62
2018-09-16T02:57:20.009Z,12.56
2018-09-16T02:59:48.078Z,12.56
2018-09-16T03:02:16.184Z,12.53
2018-09-16T03:04:44.249Z,12.51
2018-09-16T03:07:12.366Z,12.49
2018-09-16T03:09:40.442Z,12.50
2018-09-16T03:12:08.528Z,12.47
2018-09-16T03:14:36.615Z,12.45
2018-09-16T03:17:04.688Z,12.45
2018-09-16T03:19:32.764Z,12.39
2018-09-16T03:22:00.828Z,12.40
2018-09-16T03:24:28.898Z,12.38
2018-09-16T03:26:56.998Z,12.36
2018-09-16T03:29:25.114Z,12.29
2018-09-16T03:31:53.391Z,12.34
2018-09-16T03:34:21.462Z,12.27
2018-09-16T03:36:49.554Z,12.31
2018-09-16T03:39:17.652Z,12.30
2018-09-16T03:41:45.755Z,12.30
2018-09-16T03:44:13.937Z,12.30
2018-09-16T03:46:42.102Z,12.26
2018-09-16T03:49:10.236Z,12.23
2018-09-16T03:51:38.328Z,12.23
2018-09-16T03:54:06.460Z,12.24
2018-09-16T03:56:34.511Z,12.23
2018-09-16T03:59:02.600Z,12.20
2018-09-16T04:01:30.693Z,12.19
2018-09-16T04:03:58.803Z,12.16
2018-09-16T04:06:26.900Z,12.10
2018-09-16T04:08:54.974Z,12.09
2018-09-16T04:11:23.059Z,12.05
2018-09-16T04:13:51.215Z,12.02
2018-09-16T04:16:19.263Z,11.99
2018-09-16T04:18:47.341Z,11.94
2018-09-16T04:21:15.435Z,11.90
2018-09-16T04:23:45.569Z,11.89
2018-09-16T04:26:14.568Z,11.88
2018-09-16T04:28:42.841Z,11.86
2018-09-16T04:31:10.956Z,11.85
2018-09-16T04:33:39.086Z,11.84
2018-09-16T04:36:07.187Z,11.82
2018-09-16T04:38:35.289Z,11.79
2018-09-16T04:41:03.392Z,11.75
2018-09-16T04:43:31.468Z,11.73
2018-09-16T04:45:59.566Z,11.72
2018-09-16T04:48:27.647Z,11.70
2018-09-16T04:50:55.728Z,11.69
2018-09-16T04:53:24.184Z,11.71
2018-09-16T04:55:52.255Z,11.70
2018-09-16T04:58:20.327Z,11.70
2018-09-16T05:00:48.451Z,11.70
2018-09-16T05:03:16.543Z,11.72
2018-09-16T05:05:44.632Z,11.72
2018-09-16T05:08:12.715Z,11.72
2018-09-16T05:10:40.802Z,11.73
2018-09-16T05:13:08.889Z,11.80
2018-09-16T05:15:36.988Z,11.85
2018-09-16T05:18:05.066Z,11.88
2018-09-16T05:20:33.125Z,11.98
2018-09-16T05:23:01.191Z,12.04
2018-09-16T05:25:29.292Z,12.11
2018-09-16T05:27:57.364Z,12.20
2018-09-16T05:30:25.482Z,12.09
2018-09-16T05:32:53.546Z,12.31
2018-09-16T05:35:21.605Z,12.46
2018-09-16T05:37:49.700Z,12.63
2018-09-16T05:40:17.787Z,12.88
2018-09-16T05:42:45.872Z,13.21
2018-09-16T05:45:13.955Z,13.47
2018-09-16T05:47:42.042Z,13.55
2018-09-16T05:50:10.135Z,13.65
2018-09-16T05:52:38.262Z,13.62
2018-09-16T05:55:06.275Z,13.63
2018-09-16T05:57:34.430Z,13.61
2018-09-16T06:00:02.519Z,13.79
2018-09-16T06:02:30.621Z,14.14
2018-09-16T06:04:58.773Z,14.39
2018-09-16T06:07:26.837Z,14.51
2018-09-16T06:09:54.908Z,14.75
2018-09-16T06:12:23.152Z,15.04
2018-09-16T06:14:51.228Z,15.45
2018-09-16T06:17:19.391Z,15.83
2018-09-16T06:19:47.468Z,16.19
2018-09-16T06:22:15.544Z,16.58
2018-09-16T06:24:43.704Z,16.92
2018-09-16T06:27:11.821Z,17.10
2018-09-16T06:29:39.957Z,17.22
2018-09-16T06:32:08.039Z,17.28
2018-09-16T06:34:36.136Z,17.44
2018-09-16T06:37:04.223Z,17.64
2018-09-16T06:39:32.297Z,17.99
2018-09-16T06:42:00.392Z,18.37
2018-09-16T06:44:28.481Z,18.64
2018-09-16T06:46:56.568Z,18.83
2018-09-16T06:49:24.636Z,19.02
2018-09-16T06:51:52.767Z,19.31
2018-09-16T06:54:20.852Z,19.41
2018-09-16T06:56:48.933Z,19.40
2018-09-16T06:59:17.005Z,19.73
2018-09-16T07:01:45.104Z,20.11
2018-09-16T07:04:13.171Z,20.26
2018-09-16T07:06:41.272Z,20.43
2018-09-16T07:09:13.653Z,20.59
2018-09-16T07:11:42.444Z,20.68
2018-09-16T07:14:10.524Z,20.91
2018-09-16T07:16:38.887Z,21.17
2018-09-16T07:19:07.468Z,21.26
2018-09-16T07:21:35.538Z,21.53
2018-09-16T07:24:03.604Z,21.73
2018-09-16T07:26:31.717Z,22.12
2018-09-16T07:28:59.808Z,22.57
2018-09-16T07:31:27.863Z,23.13
2018-09-16T07:33:55.973Z,23.54
2018-09-16T07:36:24.041Z,23.95
2018-09-16T07:38:52.125Z,24.09
2018-09-16T07:41:20.210Z,24.19
2018-09-16T07:43:48.351Z,24.22
2018-09-16T07:46:16.432Z,24.25
2018-09-16T07:48:44.567Z,24.14
2018-09-16T07:51:12.636Z,23.98
2018-09-16T07:53:40.718Z,23.88
2018-09-16T07:56:08.894Z,24.17
2018-09-16T07:58:36.989Z,24.24
2018-09-16T08:01:05.228Z,24.11
2018-09-16T08:03:33.307Z,24.19
2018-09-16T08:06:01.396Z,24.28
2018-09-16T08:08:29.524Z,24.33
2018-09-16T08:10:57.699Z,24.57
2018-09-16T08:13:25.831Z,24.68
2018-09-16T08:15:53.933Z,24.48
2018-09-16T08:18:22.006Z,24.52
2018-09-16T08:20:50.196Z,24.85
2018-09-16T08:23:18.270Z,24.99
2018-09-16T08:25:46.341Z,25.01
2018-09-16T08:28:14.424Z,25.10
2018-09-16T08:30:42.499Z,25.15
2018-09-16T08:33:10.597Z,25.25
2018-09-16T08:35:38.740Z,25.31
2018-09-16T08:38:06.855Z,25.40
2018-09-16T08:40:34.884Z,25.48
2018-09-16T08:43:02.976Z,25.54
2018-09-16T08:45:31.164Z,25.59
2018-09-16T08:47:59.228Z,25.55
2018-09-16T08:50:27.379Z,25.55
2018-09-16T08:52:55.458Z,25.49
2018-09-16T08:55:23.655Z,25.24
2018-09-16T08:57:51.734Z,25.13
2018-09-16T09:00:19.785Z,25.06
2018-09-16T09:02:47.840Z,25.12
2018-09-16T09:05:15.916Z,25.13
2018-09-16T09:07:45.641Z,25.22
2018-09-16T09:10:13.712Z,25.33
2018-09-16T09:12:41.789Z,25.43
2018-09-16T09:15:09.946Z,25.62
2018-09-16T09:17:38.086Z,25.88
2018-09-16T09:20:06.182Z,25.72
2018-09-16T09:22:34.261Z,25.31
2018-09-16T09:25:02.709Z,25.03
2018-09-16T09:27:31.030Z,24.65
2018-09-16T09:29:59.221Z,24.40
2018-09-16T09:32:27.308Z,24.17
2018-09-16T09:34:55.419Z,23.97
2018-09-16T09:37:23.488Z,23.68
2018-09-16T09:39:51.627Z,23.58
2018-09-16T09:42:19.727Z,23.42
2018-09-16T09:44:47.828Z,23.28
2018-09-16T09:47:15.900Z,23.16
2018-09-16T09:49:44.063Z,22.98
2018-09-16T09:52:12.220Z,22.96
2018-09-16T09:54:40.352Z,22.95
2018-09-16T09:57:08.615Z,22.94
2018-09-16T09:59:36.716Z,22.93
2018-09-16T10:02:04.868Z,22.88
2018-09-16T10:04:33.028Z,22.93
2018-09-16T10:07:02.780Z,22.94
2018-09-16T10:09:31.127Z,22.92
2018-09-16T10:11:59.196Z,22.97
2018-09-16T10:14:27.297Z,22.97
2018-09-16T10:16:55.338Z,23.03
2018-09-16T10:19:23.407Z,23.03
2018-09-16T10:21:51.534Z,22.94
2018-09-16T10:24:19.629Z,22.92
2018-09-16T10:26:47.698Z,22.88
2018-09-16T10:29:15.824Z,22.89
2018-09-16T10:31:43.942Z,22.88
2018-09-16T10:34:12.051Z,22.83
2018-09-16T10:36:40.129Z,22.76
2018-09-16T10:39:10.085Z,22.79
2018-09-16T10:41:38.152Z,22.82
2018-09-16T10:44:06.233Z,22.89
2018-09-16T10:46:34.305Z,22.96
2018-09-16T10:49:02.418Z,22.96
2018-09-16T10:51:30.565Z,22.85
2018-09-16T10:53:58.660Z,22.81
2018-09-16T10:56:26.735Z,22.78
2018-09-16T10:58:54.832Z,22.77
2018-09-16T11:01:22.892Z,22.84
2018-09-16T11:03:50.948Z,22.80
2018-09-16T11:06:19.043Z,22.87
2018-09-16T11:08:47.098Z,22.97
2018-09-16T11:11:15.189Z,22.99
2018-09-16T11:13:43.232Z,23.11
2018-09-16T11:16:11.335Z,23.26
2018-09-16T11:18:39.405Z,23.32
2018-09-16T11:21:07.476Z,23.44
2018-09-16T11:23:35.546Z,23.50
2018-09-16T11:26:03.873Z,23.56
2018-09-16T11:28:32.068Z,23.62
2018-09-16T11:31:00.253Z,23.62
2018-09-16T11:33:28.446Z,23.62
2018-09-16T11:35:56.560Z,23.59
2018-09-16T11:38:24.679Z,23.65
2018-09-16T11:40:52.807Z,23.61
2018-09-16T11:43:21.031Z,23.60
2018-09-16T11:45:50.015Z,23.59
2018-09-16T11:48:18.261Z,23.67
2018-09-16T11:50:46.421Z,23.73
2018-09-16T11:53:14.587Z,23.60
2018-09-16T11:55:42.786Z,23.79
2018-09-16T11:58:10.931Z,23.86
2018-09-16T12:00:39.052Z,23.89
2018-09-16T12:03:07.136Z,23.94
2018-09-16T12:05:35.301Z,24.04
2018-09-16T12:08:03.441Z,24.15
2018-09-16T12:10:31.534Z,24.27
2018-09-16T12:12:59.612Z,24.38
2018-09-16T12:15:27.954Z,24.51
2018-09-16T12:17:56.154Z,24.60
2018-09-16T12:20:24.389Z,24.68
2018-09-16T12:22:52.484Z,24.73
2018-09-16T12:25:20.562Z,24.73
2018-09-16T12:27:49.030Z,24.56
2018-09-16T12:30:17.143Z,24.54
2018-09-16T12:32:45.298Z,24.46
2018-09-16T12:35:13.439Z,24.49
2018-09-16T12:37:41.555Z,24.46
2018-09-16T12:40:09.641Z,24.47
2018-09-16T12:42:37.775Z,24.52
2018-09-16T12:45:06.061Z,24.54
2018-09-16T12:47:35.186Z,24.54
2018-09-16T12:50:03.297Z,24.50
2018-09-16T12:52:31.388Z,24.49
2018-09-16T12:54:59.501Z,24.53
2018-09-16T12:57:27.698Z,24.48
2018-09-16T12:59:55.839Z,24.43
2018-09-16T13:02:23.942Z,24.47
2018-09-16T13:04:52.104Z,24.51
2018-09-16T13:07:20.350Z,24.50
2018-09-16T13:09:48.452Z,24.34
2018-09-16T13:12:16.654Z,24.55
2018-09-16T13:14:44.747Z,24.60
2018-09-16T13:17:12.892Z,24.60
2018-09-16T13:19:40.999Z,24.57
2018-09-16T13:22:09.150Z,24.59
2018-09-16T13:24:37.259Z,24.61
2018-09-16T13:27:05.376Z,24.59
2018-09-16T13:29:33.518Z,24.64
2018-09-16T13:32:01.636Z,24.65
2018-09-16T13:34:29.737Z,24.64
2018-09-16T13:36:58.668Z,24.66
2018-09-16T13:39:26.780Z,24.57
2018-09-16T13:41:54.850Z,24.59
2018-09-16T13:44:22.984Z,24.57
2018-09-16T13:46:51.083Z,24.47
2018-09-16T13:49:19.309Z,24.57
2018-09-16T13:51:47.436Z,24.64
2018-09-16T13:54:15.550Z,24.75
2018-09-16T13:56:43.935Z,24.81
2018-09-16T13:59:12.065Z,24.89
2018-09-16T14:01:40.147Z,24.95
2018-09-16T14:04:08.205Z,24.95
2018-09-16T14:06:36.335Z,24.94
2018-09-16T14:09:06.242Z,24.99
2018-09-16T14:11:34.444Z,24.96
2018-09-16T14:14:02.534Z,24.96
2018-09-16T14:16:30.636Z,24.94
2018-09-16T14:18:58.742Z,24.92
2018-09-16T14:21:26.930Z,24.88
2018-09-16T14:23:55.068Z,24.95
2018-09-16T14:26:23.161Z,24.94
2018-09-16T14:28:51.331Z,24.94
2018-09-16T14:31:19.452Z,24.88
2018-09-16T14:33:47.650Z,24.85
2018-09-16T14:36:15.761Z,24.83
2018-09-16T14:38:43.990Z,24.75
2018-09-16T14:41:12.316Z,24.77
2018-09-16T14:43:40.449Z,24.79
2018-09-16T14:46:08.590Z,24.70
2018-09-16T14:48:36.863Z,24.70
2018-09-16T14:51:04.975Z,24.68
2018-09-16T14:53:33.296Z,24.68
2018-09-16T14:56:01.600Z,24.70
2018-09-16T14:58:29.724Z,24.71
2018-09-16T15:00:57.820Z,24.69
2018-09-16T15:03:25.974Z,24.66
2018-09-16T15:05:54.227Z,24.57
2018-09-16T15:08:22.380Z,24.52
2018-09-16T15:10:50.480Z,24.49
2018-09-16T15:13:18.686Z,24.45
2018-09-16T15:15:47.168Z,24.48
2018-09-16T15:18:15.307Z,24.47
2018-09-16T15:20:43.643Z,24.45
2018-09-16T15:23:11.737Z,24.47
2018-09-16T15:25:39.857Z,24.49
2018-09-16T15:28:07.943Z,24.46
2018-09-16T15:30:37.256Z,24.44
2018-09-16T15:33:05.578Z,24.43
2018-09-16T15:35:33.729Z,24.44
2018-09-16T15:38:01.855Z,24.41
2018-09-16T15:40:30.084Z,24.38
2018-09-16T15:42:58.175Z,24.28
2018-09-16T15:45:26.428Z,24.25
2018-09-16T15:47:54.537Z,24.18
2018-09-16T15:50:22.717Z,24.12
2018-09-16T15:52:50.806Z,24.03
2018-09-16T15:55:18.947Z,23.92
2018-09-16T15:57:47.095Z,23.82
2018-09-16T16:00:15.196Z,23.73
2018-09-16T16:02:43.419Z,23.65
2018-09-16T16:05:11.512Z,23.57
2018-09-16T16:07:39.606Z,23.49
2018-09-16T16:10:07.792Z,23.41
2018-09-16T16:12:35.933Z,23.38
2018-09-16T16:15:04.070Z,23.32
2018-09-16T16:17:33.410Z,23.29
2018-09-16T16:20:02.123Z,23.23
2018-09-16T16:22:30.280Z,23.20
2018-09-16T16:24:58.324Z,23.15
2018-09-16T16:27:26.510Z,23.12
2018-09-16T16:29:54.616Z,23.08
2018-09-16T16:32:22.708Z,23.04
2018-09-16T16:34:50.783Z,23.00
2018-09-16T16:37:18.845Z,22.95
2018-09-16T16:39:46.911Z,22.90
2018-09-16T16:42:14.976Z,22.87
2018-09-16T16:44:43.101Z,22.82
2018-09-16T16:47:11.162Z,22.76
2018-09-16T16:49:39.269Z,22.71
2018-09-16T16:52:07.372Z,22.65
2018-09-16T16:54:35.560Z,22.60
2018-09-16T16:57:03.680Z,22.52
2018-09-16T16:59:31.823Z,22.46
2018-09-16T17:02:00.033Z,22.40
2018-09-16T17:04:28.113Z,22.35
2018-09-16T17:06:56.226Z,22.30
2018-09-16T17:09:24.377Z,22.25
2018-09-16T17:11:52.492Z,22.21
2018-09-16T17:14:20.655Z,22.17
2018-09-16T17:16:48.789Z,22.11
2018-09-16T17:19:17.627Z,22.06
2018-09-16T17:21:45.717Z,22.02
2018-09-16T17:24:13.833Z,21.97
2018-09-16T17:26:41.970Z,21.92
2018-09-16T17:29:10.155Z,21.89
2018-09-16T17:31:38.230Z,21.86
2018-09-16T17:34:06.416Z,21.77
2018-09-16T17:36:34.509Z,21.69
2018-09-16T17:39:02.643Z,21.63
2018-09-16T17:41:30.780Z,21.56
2018-09-16T17:43:58.913Z,21.47
2018-09-16T17:46:26.921Z,21.41
2018-09-16T17:48:55.118Z,21.34
2018-09-16T17:51:23.272Z,21.29
2018-09-16T17:53:51.457Z,21.24
2018-09-16T17:56:19.614Z,21.17
2018-09-16T17:58:47.747Z,21.10
2018-09-16T18:01:15.877Z,21.03
2018-09-16T18:03:43.996Z,20.97
2018-09-16T18:06:12.117Z,20.89
2018-09-16T18:08:44.413Z,20.79
2018-09-16T18:11:13.623Z,20.71
2018-09-16T18:13:41.986Z,20.68
2018-09-16T18:16:10.412Z,20.63
2018-09-16T18:18:38.748Z,20.57
2018-09-16T18:21:07.552Z,20.54
2018-09-16T18:23:37.214Z,20.50
2018-09-16T18:26:05.320Z,20.44
2018-09-16T18:28:33.457Z,20.42
2018-09-16T18:31:01.527Z,20.38
2018-09-16T18:33:29.661Z,20.36
2018-09-16T18:35:57.817Z,20.34
2018-09-16T18:38:25.889Z,20.30
2018-09-16T18:40:54.047Z,20.25
2018-09-16T18:43:22.288Z,20.21
2018-09-16T18:45:50.420Z,20.13
2018-09-16T18:48:18.493Z,20.05
2018-09-16T18:50:46.546Z,19.99
2018-09-16T18:53:14.926Z,19.92
2018-09-16T18:55:42.970Z,19.85
2018-09-16T18:58:11.070Z,19.78
2018-09-16T19:00:39.114Z,19.70
2018-09-16T19:03:07.279Z,19.61
2018-09-16T19:05:35.476Z,19.51
2018-09-16T19:08:03.557Z,19.46
2018-09-16T19:10:31.642Z,19.40
2018-09-16T19:12:59.715Z,19.37
2018-09-16T19:15:27.822Z,19.32
2018-09-16T19:17:55.955Z,19.26
2018-09-16T19:20:24.009Z,19.21
2018-09-16T19:22:52.096Z,19.19
2018-09-16T19:25:20.147Z,19.16
2018-09-16T19:27:48.229Z,19.10
2018-09-16T19:30:16.285Z,19.03
2018-09-16T19:32:44.348Z,18.98
2018-09-16T19:35:12.437Z,18.90
2018-09-16T19:37:40.501Z,18.84
2018-09-16T19:40:08.620Z,18.77
2018-09-16T19:42:36.620Z,18.74
2018-09-16T19:45:05.144Z,18.71
2018-09-16T19:47:33.653Z,18.68
2018-09-16T19:50:01.789Z,18.62
2018-09-16T19:52:29.950Z,18.57
2018-09-16T19:54:58.352Z,18.55
2018-09-16T19:57:26.558Z,18.54
2018-09-16T19:59:54.670Z,18.49
2018-09-16T20:02:22.792Z,18.46
2018-09-16T20:04:50.873Z,18.39
2018-09-16T20:07:18.912Z,18.36
2018-09-16T20:09:47.050Z,18.32
2018-09-16T20:12:15.280Z,18.30
2018-09-16T20:14:43.320Z,18.26
2018-09-16T20:17:12.634Z,18.23
2018-09-16T20:19:40.788Z,18.18
2018-09-16T20:22:09.352Z,18.14
2018-09-16T20:24:37.515Z,18.09
2018-09-16T20:27:06.358Z,18.03
2018-09-16T20:29:34.460Z,17.94
2018-09-16T20:32:02.939Z,17.85
2018-09-16T20:34:30.997Z,17.78
2018-09-16T20:36:59.077Z,17.71
2018-09-16T20:39:27.282Z,17.63
2018-09-16T20:41:55.327Z,17.56
2018-09-16T20:44:23.403Z,17.54
2018-09-16T20:46:51.687Z,17.49
2018-09-16T20:49:19.813Z,17.45
2018-09-16T20:51:47.911Z,17.44
2018-09-16T20:54:15.969Z,17.32
2018-09-16T20:56:44.034Z,17.33
2018-09-16T20:59:12.112Z,17.34
2018-09-16T21:01:40.185Z,17.33
2018-09-16T21:04:08.270Z,17.29
2018-09-16T21:06:36.637Z,17.28
2018-09-16T21:09:08.464Z,17.23
2018-09-16T21:11:36.538Z,17.19
2018-09-16T21:14:04.740Z,17.16
2018-09-16T21:16:32.796Z,17.12
2018-09-16T21:19:00.877Z,17.09
2018-09-16T21:21:28.997Z,17.06
2018-09-16T21:23:57.116Z,17.03
2018-09-16T21:26:25.319Z,16.99
2018-09-16T21:28:53.555Z,16.96
2018-09-16T21:31:21.616Z,16.88
2018-09-16T21:33:49.710Z,16.85
2018-09-16T21:36:17.773Z,16.82
2018-09-16T21:38:45.891Z,16.79
2018-09-16T21:41:14.125Z,16.74
2018-09-16T21:43:42.199Z,16.70
2018-09-16T21:46:10.343Z,16.65
2018-09-16T21:48:38.419Z,16.58
2018-09-16T21:51:06.544Z,16.55
2018-09-16T21:53:34.616Z,16.51
2018-09-16T21:56:02.692Z,16.46
2018-09-16T21:58:30.760Z,16.44
2018-09-16T22:00:58.921Z,16.41
2018-09-16T22:03:26.985Z,16.36
2018-09-16T22:05:55.467Z,16.28
2018-09-16T22:08:23.563Z,16.22
2018-09-16T22:10:51.617Z,16.15
2018-09-16T22:13:19.704Z,16.08
2018-09-16T22:15:47.756Z,16.03
2018-09-16T22:18:15.802Z,15.97
2018-09-16T22:20:43.839Z,15.90
2018-09-16T22:23:11.936Z,15.86
2018-09-16T22:25:39.994Z,15.77
2018-09-16T22:28:08.059Z,15.70
2018-09-16T22:30:36.111Z,15.66
2018-09-16T22:33:04.176Z,15.59
2018-09-16T22:35:32.360Z,15.55
2018-09-16T22:38:00.428Z,15.50
2018-09-16T22:40:28.476Z,15.48
2018-09-16T22:42:56.532Z,15.46
2018-09-16T22:45:24.607Z,15.38
2018-09-16T22:47:52.900Z,15.38
2018-09-16T22:50:20.957Z,15.34
2018-09-16T22:52:49.120Z,15.29
2018-09-16T22:55:18.283Z,15.25
2018-09-16T22:57:46.356Z,15.22
2018-09-16T23:00:16.536Z,15.19
2018-09-16T23:02:44.647Z,15.17
2018-09-16T23:05:12.712Z,15.13
2018-09-16T23:07:41.047Z,15.09
2018-09-16T23:10:09.107Z,15.04
2018-09-16T23:12:37.204Z,14.99
2018-09-16T23:15:05.263Z,14.95
2018-09-16T23:17:33.321Z,14.90
2018-09-16T23:20:01.371Z,14.86
2018-09-16T23:22:29.434Z,14.82
2018-09-16T23:24:57.756Z,14.77
2018-09-16T23:27:26.031Z,14.71
2018-09-16T23:29:54.145Z,14.66
2018-09-16T23:32:22.245Z,14.63
2018-09-16T23:34:50.300Z,14.59
2018-09-16T23:37:18.387Z,14.55
2018-09-16T23:39:46.454Z,14.50
2018-09-16T23:42:14.520Z,14.47
2018-09-16T23:44:42.564Z,14.44
2018-09-16T23:47:10.620Z,14.40
2018-09-16T23:49:38.691Z,14.37
2018-09-16T23:52:06.743Z,14.32
2018-09-16T23:54:34.797Z,14.28
2018-09-16T23:57:02.857Z,14.24
2018-09-16T23:59:30.943Z,14.18
